Time;durP1;ratioP1;P1;durP2;ratioP2;P2;SDS_P1;SDS_P2;PMS_P1;PMS_P2;Temp;Humidity;BMP_temperature;BMP_pressure;BME280_temperature;BME280_humidity;BME280_pressure;Samples;Min_cycle;Max_cycle;Signal;HPM_P1;HPM_P2
2022/11/01 00:00:52;;;;;;;54.72;38.83;;;12.10;99.90;;;;;;6230981;23;20177;-88
2022/11/01 00:03:19;;;;;;;50.42;38.63;;;12.10;99.90;;;;;;6240284;22;20221;-89
2022/11/01 00:05:46;;;;;;;57.88;40.55;;;12.20;99.90;;;;;;6237414;23;20194;-88
2022/11/01 00:08:13;;;;;;;54.72;36.65;;;12.20;99.90;;;;;;6238746;23;20164;-88
2022/11/01 00:10:40;;;;;;;54.75;38.92;;;12.00;99.90;;;;;;6242129;22;20184;-87
2022/11/01 00:13:08;;;;;;;47.80;36.50;;;12.10;99.90;;;;;;6242792;22;20175;-90
2022/11/01 00:15:35;;;;;;;48.80;38.40;;;12.20;99.90;;;;;;6236754;22;20195;-90
2022/11/01 00:18:17;;;;;;;49.63;40.10;;;12.10;99.90;;;;;;6242132;22;20172;-88
2022/11/01 00:20:47;;;;;;;55.53;41.58;;;11.80;99.90;;;;;;6242819;22;20171;-90
2022/11/01 00:23:14;;;;;;;52.60;42.67;;;11.70;99.90;;;;;;6236807;22;20180;-88
2022/11/01 00:25:42;;;;;;;55.05;41.42;;;11.90;99.90;;;;;;6230852;23;20200;-90
2022/11/01 00:28:09;;;;;;;50.88;39.75;;;11.80;99.90;;;;;;6227359;23;20215;-90
2022/11/01 00:30:37;;;;;;;51.97;38.08;;;11.80;99.90;;;;;;6231715;23;20275;-89
2022/11/01 00:33:05;;;;;;;52.10;40.20;;;11.90;99.90;;;;;;6227419;23;20394;-88
2022/11/01 00:35:33;;;;;;;49.53;38.90;;;11.90;99.90;;;;;;6227652;23;20180;-88
2022/11/01 00:38:00;;;;;;;49.15;37.92;;;11.90;99.90;;;;;;6227715;23;20183;-87
2022/11/01 00:40:27;;;;;;;54.28;39.80;;;11.60;99.90;;;;;;6239563;23;20244;-86
2022/11/01 00:42:55;;;;;;;50.15;37.85;;;11.70;99.90;;;;;;6239812;22;20198;-89
2022/11/01 00:45:23;;;;;;;47.90;39.88;;;11.80;99.90;;;;;;6241779;22;20192;-86
2022/11/01 00:47:51;;;;;;;48.08;35.75;;;11.70;99.90;;;;;;6243250;22;20156;-89
2022/11/01 00:50:17;;;;;;;45.53;36.45;;;11.70;99.90;;;;;;6240920;22;20198;-88
2022/11/01 00:52:44;;;;;;;45.33;37.80;;;11.60;99.90;;;;;;6235550;23;20180;-90
2022/11/01 00:55:12;;;;;;;52.47;35.95;;;11.60;99.90;;;;;;6211061;23;20176;-90
2022/11/01 00:57:39;;;;;;;45.38;36.63;;;11.60;99.90;;;;;;6238470;23;20195;-89
2022/11/01 01:00:07;;;;;;;53.97;36.70;;;11.60;99.90;;;;;;6232584;23;20231;-87
2022/11/01 01:02:34;;;;;;;38.70;34.60;;;11.60;99.90;;;;;;6227257;23;20180;-89
2022/11/01 01:05:01;;;;;;;48.80;36.42;;;11.50;99.90;;;;;;6230691;23;20184;-90
2022/11/01 01:07:28;;;;;;;45.17;38.17;;;11.60;99.90;;;;;;6229397;23;20176;-88
2022/11/01 01:09:55;;;;;;;44.45;36.65;;;11.50;99.90;;;;;;6226169;23;20187;-89
2022/11/01 01:12:23;;;;;;;49.97;40.22;;;11.60;99.90;;;;;;6227319;23;20176;-89
2022/11/01 01:14:50;;;;;;;46.30;37.83;;;11.40;99.90;;;;;;6225761;23;20364;-88
2022/11/01 01:17:17;;;;;;;53.10;38.72;;;11.40;99.90;;;;;;6225345;23;20271;-87
2022/11/01 01:19:44;;;;;;;51.65;39.20;;;11.50;99.90;;;;;;6226387;23;20182;-89
2022/11/01 01:22:11;;;;;;;49.78;38.67;;;11.60;99.90;;;;;;6227677;23;20481;-90
2022/11/01 01:24:44;;;;;;;48.00;37.10;;;11.60;99.90;;;;;;6225181;23;20176;-89
2022/11/01 01:27:11;;;;;;;49.83;35.97;;;11.50;99.90;;;;;;6228014;23;20180;-89
2022/11/01 01:29:43;;;;;;;47.08;36.60;;;11.40;99.90;;;;;;6231350;23;20172;-88
2022/11/01 01:32:21;;;;;;;55.80;38.78;;;11.50;99.90;;;;;;6208214;22;20200;-89
2022/11/01 01:37:23;;;;;;;53.65;41.72;;;11.50;99.90;;;;;;6213256;22;20200;-91
2022/11/01 01:39:51;;;;;;;44.35;38.90;;;11.30;99.90;;;;;;6230865;23;20179;-90
2022/11/01 01:42:20;;;;;;;52.97;38.92;;;11.30;99.90;;;;;;6229731;23;20180;-91
2022/11/01 01:44:50;;;;;;;55.95;37.50;;;11.20;99.90;;;;;;6230116;22;20176;-92
2022/11/01 01:47:37;;;;;;;47.55;38.00;;;10.90;99.90;;;;;;6231520;23;20630;-90
2022/11/01 01:50:09;;;;;;;47.20;39.20;;;11.00;99.90;;;;;;6205260;22;20504;-90
2022/11/01 02:06:12;;;;;;;45.83;38.53;;;11.00;99.90;;;;;;6192166;22;20203;-91
2022/11/01 02:08:43;;;;;;;53.03;39.03;;;11.00;99.90;;;;;;6230810;22;20168;-86
2022/11/01 02:11:12;;;;;;;52.78;40.53;;;11.00;99.90;;;;;;6232176;22;20182;-91
2022/11/01 02:13:39;;;;;;;53.13;41.33;;;10.90;99.90;;;;;;6234694;22;20179;-87
2022/11/01 02:16:30;;;;;;;53.78;41.25;;;10.70;99.90;;;;;;6234635;23;20186;-90
2022/11/01 02:22:07;;;;;;;57.40;40.85;;;10.90;99.90;;;;;;6253100;22;20192;-88
2022/11/01 02:25:02;;;;;;;48.53;36.65;;;11.00;99.90;;;;;;6225097;22;20192;-89
2022/11/01 02:28:19;;;;;;;56.65;37.05;;;11.10;99.90;;;;;;6238666;22;20199;-89
2022/11/01 02:30:59;;;;;;;53.97;39.30;;;11.20;99.90;;;;;;6123002;23;20190;-88
2022/11/01 02:33:33;;;;;;;47.53;37.22;;;11.20;99.90;;;;;;6226058;23;20167;-87
2022/11/01 02:36:07;;;;;;;45.55;37.47;;;11.30;99.90;;;;;;6225039;23;20481;-88
2022/11/01 02:39:02;;;;;;;46.33;37.30;;;11.10;99.90;;;;;;6224345;23;20175;-89
2022/11/01 02:41:32;;;;;;;48.53;37.22;;;11.30;99.90;;;;;;6236406;23;20160;-89
2022/11/01 02:44:02;;;;;;;46.58;36.53;;;11.30;99.90;;;;;;6240993;22;20170;-88
2022/11/01 02:49:46;;;;;;;56.17;38.40;;;11.20;99.90;;;;;;6236057;23;20183;-89
2022/11/01 02:52:21;;;;;;;50.28;36.88;;;11.20;99.90;;;;;;6224675;23;20194;-87
2022/11/01 02:54:52;;;;;;;46.60;36.90;;;11.10;99.90;;;;;;6224212;23;20202;-87
2022/11/01 02:57:33;;;;;;;49.22;37.08;;;11.20;99.90;;;;;;6225514;23;20168;-88
2022/11/01 03:00:23;;;;;;;52.00;39.75;;;11.10;99.90;;;;;;6225997;23;20271;-86
2022/11/01 03:03:12;;;;;;;45.78;37.92;;;10.90;99.90;;;;;;6229094;22;20176;-89
2022/11/01 03:05:47;;;;;;;52.85;38.47;;;10.70;99.90;;;;;;6217046;22;20196;-90
2022/11/01 03:08:23;;;;;;;49.95;39.55;;;10.70;99.90;;;;;;6214063;22;20192;-89
2022/11/01 03:11:04;;;;;;;55.08;42.80;;;10.50;99.90;;;;;;6190624;22;20258;-90
2022/11/01 03:13:56;;;;;;;66.68;42.35;;;10.40;99.90;;;;;;6229786;23;20215;-89
2022/11/01 03:16:33;;;;;;;55.35;43.13;;;10.30;99.90;;;;;;6226731;23;20211;-85
2022/11/01 03:19:21;;;;;;;59.60;42.58;;;10.20;99.90;;;;;;6226432;23;20164;-88
2022/11/01 03:22:11;;;;;;;58.42;47.47;;;10.10;99.90;;;;;;6227441;23;20262;-87
2022/11/01 03:24:47;;;;;;;62.50;45.80;;;10.10;99.90;;;;;;6227736;23;20215;-83
2022/11/01 03:27:35;;;;;;;65.72;48.13;;;10.20;99.90;;;;;;6226966;23;20418;-87
2022/11/01 03:30:08;;;;;;;75.38;49.60;;;10.10;99.90;;;;;;6226481;23;20196;-89
2022/11/01 03:32:40;;;;;;;67.88;52.05;;;10.00;99.90;;;;;;6227440;23;20172;-84
2022/11/01 03:39:33;;;;;;;79.22;51.28;;;10.20;99.90;;;;;;6212490;23;20355;-90
2022/11/01 03:42:49;;;;;;;76.20;55.63;;;10.30;99.90;;;;;;6226516;23;20183;-89
2022/11/01 03:46:25;;;;;;;80.80;57.17;;;10.10;99.90;;;;;;6102869;23;20184;-87
2022/11/01 03:53:36;;;;;;;;;;;;;;;;;;;;;
2022/11/01 04:13:19;;;;;;;108.13;65.47;;;10.00;99.90;;;;;;6202854;22;20203;-88
2022/11/01 04:21:21;;;;;;;92.20;63.65;;;9.90;99.90;;;;;;6238511;22;20231;-89
2022/11/01 04:23:48;;;;;;;86.78;58.50;;;9.80;99.90;;;;;;6231447;23;20176;-89
2022/11/01 04:26:17;;;;;;;87.90;59.80;;;9.80;99.90;;;;;;6227718;23;20199;-90
2022/11/01 04:28:55;;;;;;;82.13;57.38;;;9.80;99.90;;;;;;6228841;22;20173;-89
2022/11/01 04:31:24;;;;;;;82.50;58.33;;;9.90;99.90;;;;;;6227062;23;20172;-85
2022/11/01 04:33:51;;;;;;;95.63;58.55;;;9.80;99.90;;;;;;6229979;22;20176;-90
2022/11/01 04:36:18;;;;;;;80.25;60.47;;;9.70;99.90;;;;;;6230975;23;20199;-89
2022/11/01 04:38:51;;;;;;;82.57;58.00;;;9.70;99.90;;;;;;6228199;22;20196;-86
2022/11/01 04:41:18;;;;;;;81.82;60.08;;;9.70;99.90;;;;;;6222109;22;20200;-91
2022/11/01 04:43:46;;;;;;;78.80;57.25;;;9.70;99.90;;;;;;6231506;22;20169;-86
2022/11/01 04:46:13;;;;;;;88.03;57.60;;;9.70;99.90;;;;;;6229870;23;20200;-91
2022/11/01 04:48:41;;;;;;;86.05;59.38;;;9.70;99.90;;;;;;6217093;22;20494;-90
2022/11/01 04:51:08;;;;;;;87.38;58.70;;;9.70;99.90;;;;;;6232784;23;20229;-89
2022/11/01 04:53:36;;;;;;;83.13;55.65;;;9.80;99.90;;;;;;6229702;23;20175;-89
2022/11/01 04:58:43;;;;;;;88.50;59.65;;;9.50;99.90;;;;;;6200001;23;20207;-89
2022/11/01 05:01:13;;;;;;;81.85;59.20;;;9.60;99.90;;;;;;6172206;23;20177;-83
2022/11/01 05:03:43;;;;;;;86.05;59.63;;;9.50;99.90;;;;;;6197043;23;20185;-86
2022/11/01 05:06:10;;;;;;;90.82;59.42;;;9.70;99.90;;;;;;6170067;23;20247;-84
2022/11/01 05:08:37;;;;;;;103.20;62.00;;;9.60;99.90;;;;;;6171586;23;20200;-88
2022/11/01 05:11:04;;;;;;;103.10;65.05;;;9.50;99.90;;;;;;6172884;23;20183;-85
2022/11/01 05:13:31;;;;;;;105.25;64.45;;;9.50;99.90;;;;;;6202726;23;20177;-88
2022/11/01 05:16:02;;;;;;;108.80;65.55;;;9.50;99.90;;;;;;6174140;23;20181;-83
2022/11/01 05:18:45;;;;;;;100.15;62.30;;;9.50;99.90;;;;;;6176240;23;20206;-86
2022/11/01 05:21:12;;;;;;;107.70;62.08;;;9.20;99.90;;;;;;6170667;23;20180;-89
2022/11/01 05:23:39;;;;;;;84.10;61.83;;;9.20;99.90;;;;;;6171449;23;20176;-89
2022/11/01 05:26:06;;;;;;;88.97;59.30;;;9.10;99.90;;;;;;6171772;23;20223;-88
2022/11/01 05:28:33;;;;;;;83.07;60.08;;;9.20;99.90;;;;;;6197418;23;20377;-90
2022/11/01 05:31:01;;;;;;;88.80;58.65;;;9.10;99.90;;;;;;6174923;23;20194;-90
2022/11/01 05:33:28;;;;;;;83.95;58.78;;;9.10;99.90;;;;;;6168460;23;20534;-89
2022/11/01 05:35:55;;;;;;;77.55;57.92;;;9.20;99.90;;;;;;6169289;23;20192;-90
2022/11/01 05:38:22;;;;;;;79.75;54.30;;;9.20;99.90;;;;;;6170044;23;20185;-86
2022/11/01 05:40:49;;;;;;;89.82;54.67;;;9.20;99.90;;;;;;6170638;23;20184;-90
2022/11/01 05:43:16;;;;;;;82.88;57.92;;;9.20;99.90;;;;;;6177672;23;20289;-89
2022/11/01 05:45:43;;;;;;;84.90;57.55;;;9.10;99.90;;;;;;6201020;22;20258;-87
2022/11/01 05:48:13;;;;;;;87.65;57.28;;;9.10;99.90;;;;;;6225040;23;20211;-84
2022/11/01 05:50:46;;;;;;;80.30;55.15;;;9.10;99.90;;;;;;6234603;22;20188;-89
2022/11/01 05:53:13;;;;;;;87.07;57.67;;;9.10;99.90;;;;;;6239881;22;20164;-85
2022/11/01 05:55:41;;;;;;;86.15;53.50;;;9.10;99.90;;;;;;6234649;22;20194;-89
2022/11/01 05:58:12;;;;;;;75.55;53.70;;;9.10;99.90;;;;;;6226058;23;20255;-87
2022/11/01 06:00:39;;;;;;;91.53;55.65;;;9.10;99.90;;;;;;6222417;23;20761;-86
2022/11/01 06:03:07;;;;;;;98.90;54.30;;;9.20;99.90;;;;;;6223512;23;20188;-86
2022/11/01 06:05:36;;;;;;;90.28;54.38;;;9.20;99.90;;;;;;6220552;23;20176;-90
2022/11/01 06:08:06;;;;;;;83.93;55.15;;;9.30;99.90;;;;;;6220037;23;20259;-87
2022/11/01 06:10:38;;;;;;;75.50;52.35;;;9.30;99.90;;;;;;6196054;23;20222;-89
2022/11/01 06:13:09;;;;;;;85.75;52.28;;;9.50;99.90;;;;;;6222777;23;20180;-88
2022/11/01 06:15:39;;;;;;;85.47;50.72;;;9.50;99.90;;;;;;6222079;23;20353;-90
2022/11/01 06:18:07;;;;;;;76.53;51.30;;;9.50;99.90;;;;;;6223376;23;20187;-89
2022/11/01 06:20:37;;;;;;;83.75;50.67;;;9.50;99.90;;;;;;6220623;23;20247;-87
2022/11/01 06:23:10;;;;;;;79.80;52.63;;;9.80;99.90;;;;;;6220625;23;20184;-89
2022/11/01 06:25:45;;;;;;;69.70;46.70;;;10.00;99.90;;;;;;6220962;23;20572;-90
2022/11/01 06:28:14;;;;;;;77.32;49.05;;;9.80;99.90;;;;;;6226085;23;20194;-91
2022/11/01 06:30:46;;;;;;;73.70;46.72;;;9.60;99.90;;;;;;6198812;23;20187;-87
2022/11/01 06:33:13;;;;;;;70.35;43.65;;;9.60;99.90;;;;;;6219499;23;20227;-89
2022/11/01 06:35:43;;;;;;;79.30;50.20;;;9.90;99.90;;;;;;6219681;23;20184;-90
2022/11/01 06:38:10;;;;;;;74.38;46.97;;;9.70;99.90;;;;;;6195473;23;20172;-86
2022/11/01 06:40:37;;;;;;;76.53;49.35;;;10.00;99.90;;;;;;6194790;23;20227;-87
2022/11/01 06:43:04;;;;;;;60.97;43.42;;;10.10;99.90;;;;;;6220357;23;20242;-87
2022/11/01 06:45:32;;;;;;;72.75;44.50;;;10.20;99.90;;;;;;6221984;23;20238;-89
2022/11/01 06:48:03;;;;;;;69.45;46.65;;;10.30;99.90;;;;;;6196366;23;20239;-89
2022/11/01 06:50:31;;;;;;;84.95;44.70;;;10.30;99.90;;;;;;6224730;23;20200;-90
2022/11/01 06:53:01;;;;;;;69.97;43.58;;;10.00;99.90;;;;;;6222881;23;20567;-89
2022/11/01 06:55:34;;;;;;;68.75;45.70;;;9.90;99.90;;;;;;6224633;23;20188;-88
2022/11/01 06:58:02;;;;;;;67.07;47.83;;;9.80;99.90;;;;;;6221779;23;20177;-84
2022/11/01 07:00:33;;;;;;;75.25;48.53;;;9.80;99.90;;;;;;6223384;23;20271;-88
2022/11/01 07:03:09;;;;;;;74.80;45.08;;;9.80;99.90;;;;;;6223216;23;20195;-88
2022/11/01 07:05:37;;;;;;;72.93;44.53;;;9.90;99.90;;;;;;6224236;23;20220;-89
2022/11/01 07:08:47;;;;;;;69.30;46.30;;;9.70;99.90;;;;;;6235249;22;20191;-89
2022/11/01 07:11:15;;;;;;;60.85;41.08;;;9.80;99.90;;;;;;6240360;22;20159;-88
2022/11/01 07:13:45;;;;;;;59.03;38.50;;;10.10;99.90;;;;;;6240696;22;20169;-88
2022/11/01 07:16:12;;;;;;;56.42;38.50;;;10.40;99.90;;;;;;6241292;22;20161;-89
2022/11/01 07:18:40;;;;;;;64.40;40.50;;;10.50;99.90;;;;;;6235803;22;20391;-84
2022/11/01 07:21:09;;;;;;;65.43;34.33;;;10.70;99.90;;;;;;6229200;23;20180;-85
2022/11/01 07:23:45;;;;;;;45.45;32.00;;;10.70;99.90;;;;;;6227621;23;20180;-87
2022/11/01 07:26:15;;;;;;;52.33;37.33;;;10.50;99.90;;;;;;6227044;23;20176;-87
2022/11/01 07:28:45;;;;;;;54.22;34.15;;;10.60;99.90;;;;;;6224887;23;20256;-87
2022/11/01 07:31:13;;;;;;;42.17;29.63;;;10.60;99.90;;;;;;6222957;23;20192;-86
2022/11/01 07:33:41;;;;;;;46.17;30.65;;;10.70;99.90;;;;;;6225744;23;20240;-86
2022/11/01 07:36:11;;;;;;;40.40;26.65;;;11.20;99.90;;;;;;6226177;23;20211;-87
2022/11/01 07:38:42;;;;;;;35.15;24.15;;;11.80;99.90;;;;;;6196514;23;20184;-89
2022/11/01 07:41:15;;;;;;;36.88;23.17;;;12.50;99.90;;;;;;6229198;23;20175;-86
2022/11/01 07:43:44;;;;;;;27.30;22.00;;;12.70;99.90;;;;;;6229619;23;20229;-89
2022/11/01 07:46:16;;;;;;;34.03;23.52;;;13.10;99.90;;;;;;6232722;23;20184;-88
2022/11/01 07:48:50;;;;;;;30.60;20.73;;;13.70;99.90;;;;;;6239112;23;20188;-88
2022/11/01 07:51:19;;;;;;;32.72;23.00;;;14.10;99.90;;;;;;6233500;23;20222;-87
2022/11/01 07:53:52;;;;;;;28.73;20.77;;;14.60;99.90;;;;;;6233119;23;20192;-87
2022/11/01 07:56:24;;;;;;;28.05;21.15;;;14.40;99.90;;;;;;6234827;23;20412;-88
2022/11/01 07:58:57;;;;;;;34.65;21.67;;;13.80;99.90;;;;;;6233721;23;20176;-87
2022/11/01 08:01:25;;;;;;;30.38;21.15;;;13.40;99.90;;;;;;6229596;23;20176;-87
2022/11/01 08:03:54;;;;;;;34.97;22.70;;;13.30;99.90;;;;;;6228442;23;20183;-89
2022/11/01 08:06:27;;;;;;;32.05;21.80;;;13.70;99.90;;;;;;6230953;23;20175;-88
2022/11/01 08:08:57;;;;;;;27.77;18.65;;;14.40;99.90;;;;;;6230222;23;20231;-88
2022/11/01 08:11:28;;;;;;;32.67;19.23;;;14.70;99.90;;;;;;6228843;23;20408;-88
2022/11/01 08:13:57;;;;;;;29.50;20.05;;;14.70;99.90;;;;;;6226050;23;20390;-84
2022/11/01 08:16:30;;;;;;;28.83;22.80;;;14.50;99.90;;;;;;6222803;23;20179;-83
2022/11/01 08:18:59;;;;;;;26.45;21.27;;;14.50;99.90;;;;;;6224902;23;20474;-84
2022/11/01 08:21:31;;;;;;;31.33;21.30;;;13.90;99.90;;;;;;6231416;23;20169;-86
2022/11/01 08:24:00;;;;;;;34.78;20.70;;;13.70;99.90;;;;;;6224003;23;20406;-84
2022/11/01 08:26:28;;;;;;;31.35;20.70;;;13.30;99.90;;;;;;6225791;23;20490;-86
2022/11/01 08:28:59;;;;;;;25.90;20.05;;;13.00;99.90;;;;;;6225275;23;20239;-87
2022/11/01 08:31:37;;;;;;;32.28;22.55;;;13.20;99.90;;;;;;6225868;23;20247;-88
2022/11/01 08:34:04;;;;;;;28.00;19.73;;;13.10;99.90;;;;;;6227654;23;20195;-86
2022/11/01 08:36:42;;;;;;;28.02;21.95;;;13.50;99.90;;;;;;6226253;23;20161;-88
2022/11/01 08:39:09;;;;;;;29.77;21.13;;;13.50;99.90;;;;;;6226662;23;20176;-88
2022/11/01 08:41:36;;;;;;;28.23;23.17;;;13.30;99.90;;;;;;6224429;23;20476;-85
2022/11/01 08:44:05;;;;;;;26.95;20.42;;;13.40;99.90;;;;;;6198287;23;20239;-87
2022/11/01 08:46:32;;;;;;;27.27;22.10;;;13.60;99.90;;;;;;6227567;23;20468;-87
2022/11/01 08:49:11;;;;;;;29.80;21.67;;;14.20;99.90;;;;;;6226890;23;20195;-86
2022/11/01 08:51:44;;;;;;;28.90;22.42;;;14.40;99.90;;;;;;6216596;23;20410;-85
2022/11/01 08:54:14;;;;;;;31.30;20.83;;;14.90;99.90;;;;;;6224044;23;20180;-87
2022/11/01 08:56:41;;;;;;;28.20;20.98;;;15.00;99.90;;;;;;6226737;23;20183;-83
2022/11/01 08:59:33;;;;;;;27.80;19.83;;;15.10;99.90;;;;;;6222894;23;20513;-82
2022/11/01 09:02:02;;;;;;;27.33;19.88;;;15.20;99.90;;;;;;6226227;23;20176;-83
2022/11/01 09:04:33;;;;;;;31.13;20.63;;;15.30;99.90;;;;;;6225132;23;20184;-82
2022/11/01 09:07:01;;;;;;;30.02;20.88;;;15.50;99.90;;;;;;6224035;23;20398;-84
2022/11/01 09:09:30;;;;;;;29.70;19.50;;;15.80;99.90;;;;;;6223416;23;20175;-83
2022/11/01 09:12:00;;;;;;;29.33;20.53;;;15.80;99.90;;;;;;6225817;23;20911;-82
2022/11/01 09:14:27;;;;;;;32.38;22.70;;;15.80;99.90;;;;;;6226040;23;20402;-83
2022/11/01 09:16:54;;;;;;;23.43;19.70;;;15.50;99.90;;;;;;6226669;23;20207;-82
2022/11/01 09:19:22;;;;;;;19.90;14.90;;;15.60;99.90;;;;;;6199743;23;20444;-83
2022/11/01 09:21:49;;;;;;;25.37;17.40;;;15.50;99.90;;;;;;6224221;23;20394;-84
2022/11/01 09:24:18;;;;;;;22.92;20.17;;;15.30;99.90;;;;;;6223273;23;20401;-83
2022/11/01 09:26:46;;;;;;;19.17;15.73;;;15.00;99.90;;;;;;6222380;23;20218;-83
2022/11/01 09:29:13;;;;;;;23.00;14.75;;;14.90;99.90;;;;;;6221119;23;20437;-83
2022/11/01 09:31:40;;;;;;;18.27;15.00;;;15.00;99.90;;;;;;6221299;23;20183;-83
2022/11/01 09:34:07;;;;;;;23.58;14.43;;;15.10;99.90;;;;;;6222737;23;20429;-85
2022/11/01 09:36:37;;;;;;;16.80;12.93;;;15.00;99.90;;;;;;6222092;23;20180;-84
2022/11/01 09:39:05;;;;;;;19.03;13.07;;;14.90;99.90;;;;;;6223641;23;20184;-84
2022/11/01 09:41:46;;;;;;;17.27;12.80;;;15.00;99.90;;;;;;6220764;23;20410;-85
2022/11/01 09:44:17;;;;;;;18.27;14.90;;;15.10;99.90;;;;;;6220786;23;20378;-84
2022/11/01 09:46:56;;;;;;;20.80;13.73;;;15.10;99.90;;;;;;6221925;23;20446;-83
2022/11/01 09:49:35;;;;;;;19.47;14.47;;;15.10;99.90;;;;;;6217429;23;20593;-84
2022/11/01 09:52:06;;;;;;;18.90;13.50;;;15.00;99.90;;;;;;6222270;23;20646;-85
2022/11/01 09:54:33;;;;;;;21.43;15.00;;;14.90;99.90;;;;;;6222557;23;20393;-83
2022/11/01 09:57:20;;;;;;;17.40;14.03;;;15.00;99.90;;;;;;6220169;23;20402;-85
2022/11/01 10:00:29;;;;;;;24.33;12.85;;;15.20;99.90;;;;;;6222279;23;20444;-85
2022/11/01 10:03:35;;;;;;;19.67;15.73;;;15.50;99.90;;;;;;6158635;23;20195;-81
2022/11/01 10:06:25;;;;;;;18.33;12.13;;;15.70;99.90;;;;;;6161948;23;20376;-85
2022/11/01 10:09:09;;;;;;;17.30;11.83;;;15.90;99.90;;;;;;6219512;23;20502;-84
2022/11/01 10:12:14;;;;;;;20.80;15.00;;;16.10;99.90;;;;;;6223480;23;20374;-85
2022/11/01 10:14:48;;;;;;;14.50;11.97;;;15.90;99.90;;;;;;6179241;23;20401;-84
2022/11/01 10:17:23;;;;;;;20.00;16.07;;;15.90;99.90;;;;;;6222753;23;20406;-83
2022/11/01 10:19:54;;;;;;;18.20;13.73;;;15.90;99.90;;;;;;6223888;23;20678;-84
2022/11/01 10:22:32;;;;;;;16.53;13.43;;;16.20;99.90;;;;;;6220760;23;20460;-82
2022/11/01 10:25:21;;;;;;;15.80;11.80;;;16.40;99.90;;;;;;6196722;23;20403;-82
2022/11/01 10:28:01;;;;;;;13.80;12.40;;;16.70;99.90;;;;;;6221242;23;20480;-84
2022/11/01 10:30:35;;;;;;;16.97;14.00;;;17.00;99.90;;;;;;6220834;23;20445;-84
2022/11/01 10:33:30;;;;;;;15.33;12.27;;;17.20;99.90;;;;;;6222110;23;20826;-82
2022/11/01 10:36:16;;;;;;;14.73;12.07;;;17.60;99.90;;;;;;6221783;23;20702;-84
2022/11/01 10:38:47;;;;;;;16.43;12.43;;;17.60;99.90;;;;;;6221630;23;20366;-82
2022/11/01 10:41:45;;;;;;;12.27;10.97;;;17.80;99.90;;;;;;6201496;23;20399;-83
2022/11/01 10:44:30;;;;;;;15.10;11.70;;;17.80;99.90;;;;;;6223884;23;20432;-83
2022/11/01 10:47:01;;;;;;;11.53;10.33;;;17.90;99.90;;;;;;6222641;23;20406;-82
2022/11/01 10:49:33;;;;;;;16.67;9.87;;;17.70;99.90;;;;;;6222068;23;20448;-83
2022/11/01 10:52:27;;;;;;;12.57;8.63;;;17.80;99.90;;;;;;6221861;23;20401;-83
2022/11/01 10:54:57;;;;;;;11.20;8.70;;;17.60;99.90;;;;;;6224976;23;20887;-81
2022/11/01 10:57:45;;;;;;;10.60;9.00;;;17.60;99.90;;;;;;6225536;23;20460;-83
2022/11/01 11:00:23;;;;;;;9.00;7.83;;;17.60;99.90;;;;;;6221757;23;20605;-82
2022/11/01 11:02:58;;;;;;;10.10;7.43;;;17.60;99.90;;;;;;6199107;23;20383;-84
2022/11/01 11:05:33;;;;;;;8.30;7.40;;;17.60;99.90;;;;;;6224466;23;20428;-81
2022/11/01 11:08:03;;;;;;;11.57;8.60;;;17.50;99.90;;;;;;6225514;22;21011;-83
2022/11/01 11:10:33;;;;;;;7.13;5.83;;;17.50;99.90;;;;;;6226630;23;20433;-81
2022/11/01 11:13:07;;;;;;;6.30;5.67;;;17.50;99.90;;;;;;6226998;23;20390;-83
2022/11/01 11:16:04;;;;;;;9.90;6.90;;;17.50;99.90;;;;;;6228671;23;20398;-82
2022/11/01 11:18:38;;;;;;;11.00;5.80;;;17.70;99.90;;;;;;6228758;23;20417;-82
2022/11/01 11:21:10;;;;;;;9.43;7.00;;;17.80;99.90;;;;;;6227808;23;20477;-84
2022/11/01 11:23:41;;;;;;;9.50;5.90;;;17.80;99.90;;;;;;6236180;23;20417;-83
2022/11/01 11:26:18;;;;;;;5.20;4.70;;;18.00;99.90;;;;;;6238000;23;20374;-83
2022/11/01 11:28:50;;;;;;;8.47;5.50;;;18.20;99.90;;;;;;6229160;23;20422;-85
2022/11/01 11:31:25;;;;;;;6.40;5.73;;;18.30;99.90;;;;;;6223455;23;20366;-85
2022/11/01 11:34:37;;;;;;;6.33;5.17;;;18.30;99.90;;;;;;6230279;23;20360;-87
2022/11/01 11:37:32;;;;;;;8.83;5.90;;;18.20;99.90;;;;;;6233443;22;20411;-84
2022/11/01 11:40:00;;;;;;;8.27;5.60;;;18.20;99.90;;;;;;6223158;23;20402;-85
2022/11/01 11:42:29;;;;;;;7.10;5.50;;;18.10;99.90;;;;;;6222114;23;20396;-84
2022/11/01 11:45:29;;;;;;;7.33;6.13;;;17.80;99.90;;;;;;6221519;23;20552;-84
2022/11/01 11:48:25;;;;;;;10.30;6.77;;;17.80;99.90;;;;;;6219684;23;20480;-84
2022/11/01 11:51:03;;;;;;;8.60;5.53;;;17.70;99.90;;;;;;6210384;23;20460;-85
2022/11/01 11:53:32;;;;;;;8.93;5.57;;;17.70;99.90;;;;;;6220045;23;20372;-87
2022/11/01 11:56:02;;;;;;;6.77;5.47;;;18.00;99.90;;;;;;6222431;23;20415;-84
2022/11/01 11:58:33;;;;;;;7.37;5.57;;;18.00;99.90;;;;;;6231866;23;20397;-86
2022/11/01 12:01:02;;;;;;;8.20;6.67;;;17.90;99.90;;;;;;6238561;23;20402;-85
2022/11/01 12:03:39;;;;;;;8.30;6.43;;;17.90;99.90;;;;;;6238219;22;20394;-87
2022/11/01 12:06:08;;;;;;;8.83;5.60;;;18.10;99.90;;;;;;6236601;22;20434;-87
2022/11/01 12:08:44;;;;;;;11.27;7.60;;;18.40;99.90;;;;;;6228938;22;20449;-85
2022/11/01 12:11:12;;;;;;;11.43;6.20;;;18.60;99.90;;;;;;6223464;23;20395;-86
2022/11/01 12:13:44;;;;;;;9.20;7.17;;;18.60;99.90;;;;;;6223585;23;20452;-83
2022/11/01 12:16:19;;;;;;;7.10;5.70;;;18.50;99.90;;;;;;6223166;23;20620;-85
2022/11/01 12:18:58;;;;;;;7.63;6.70;;;18.40;99.90;;;;;;6221965;23;20397;-84
2022/11/01 12:21:28;;;;;;;10.30;7.10;;;18.20;99.90;;;;;;6223699;23;20377;-85
2022/11/01 12:24:12;;;;;;;10.37;6.47;;;18.10;99.90;;;;;;6226488;23;20406;-85
2022/11/01 12:26:42;;;;;;;9.67;7.00;;;18.10;99.90;;;;;;6225943;23;20394;-85
2022/11/01 12:29:23;;;;;;;10.27;7.10;;;18.30;99.90;;;;;;6228648;23;20426;-83
2022/11/01 12:31:54;;;;;;;8.03;6.97;;;18.20;99.90;;;;;;6225056;23;20445;-86
2022/11/01 12:34:26;;;;;;;8.23;6.17;;;18.30;99.90;;;;;;6226121;23;20412;-85
2022/11/01 12:37:33;;;;;;;8.23;6.13;;;18.20;99.90;;;;;;6223264;23;20480;-85
2022/11/01 12:40:17;;;;;;;10.60;7.90;;;18.40;99.90;;;;;;6175946;23;20551;-85
2022/11/01 12:42:50;;;;;;;16.70;7.90;;;18.40;99.90;;;;;;6220890;23;20357;-84
2022/11/01 12:45:40;;;;;;;7.90;6.13;;;18.30;99.90;;;;;;6222486;23;20403;-84
2022/11/01 12:48:21;;;;;;;7.47;6.70;;;18.40;99.90;;;;;;6220411;23;20760;-84
2022/11/01 12:50:56;;;;;;;10.10;8.27;;;18.30;99.90;;;;;;6222700;23;20394;-85
2022/11/01 12:53:38;;;;;;;10.43;8.53;;;18.00;99.90;;;;;;6220950;23;20377;-84
2022/11/01 12:56:05;;;;;;;14.57;7.33;;;18.20;99.90;;;;;;6220610;23;20394;-86
2022/11/01 12:58:32;;;;;;;12.10;7.43;;;18.10;99.90;;;;;;6222444;23;20389;-87
2022/11/01 13:01:31;;;;;;;11.03;7.23;;;17.90;99.90;;;;;;6227403;22;20761;-86
2022/11/01 13:04:27;;;;;;;7.00;5.93;;;17.80;99.90;;;;;;6225389;23;20495;-85
2022/11/01 13:07:35;;;;;;;9.03;7.50;;;17.90;99.90;;;;;;6177885;23;20389;-86
2022/11/01 13:10:32;;;;;;;8.00;7.20;;;17.90;99.90;;;;;;6219636;23;20988;-85
2022/11/01 13:13:17;;;;;;;7.60;6.43;;;17.90;99.90;;;;;;6220366;23;20690;-86
2022/11/01 13:15:53;;;;;;;11.20;7.47;;;17.80;99.90;;;;;;6222510;23;20341;-86
2022/11/01 13:18:46;;;;;;;8.40;6.90;;;17.90;99.90;;;;;;6222021;23;20431;-83
2022/11/01 13:21:33;;;;;;;9.03;7.53;;;17.70;99.90;;;;;;6225513;23;20379;-84
2022/11/01 13:24:22;;;;;;;10.93;7.03;;;17.70;99.90;;;;;;6224017;23;20393;-85
2022/11/01 13:26:56;;;;;;;7.77;6.13;;;17.70;99.90;;;;;;6228470;22;20384;-86
2022/11/01 13:29:48;;;;;;;7.77;6.97;;;17.80;99.90;;;;;;6226915;23;20549;-86
2022/11/01 13:32:28;;;;;;;8.60;7.30;;;17.70;99.90;;;;;;6222982;23;20402;-84
2022/11/01 13:35:07;;;;;;;9.90;7.53;;;17.50;99.90;;;;;;6222009;23;20436;-84
2022/11/01 13:37:50;;;;;;;11.33;6.63;;;17.50;99.90;;;;;;6220852;23;20416;-84
2022/11/01 13:40:29;;;;;;;7.47;6.77;;;17.60;99.90;;;;;;6222290;23;20739;-83
2022/11/01 13:43:15;;;;;;;8.10;6.90;;;17.60;99.90;;;;;;6226662;23;20351;-82
2022/11/01 13:46:18;;;;;;;10.40;7.00;;;17.70;99.90;;;;;;6227600;23;20393;-83
2022/11/01 13:49:23;;;;;;;9.57;8.00;;;17.70;99.90;;;;;;6226646;23;20485;-82
2022/11/01 13:52:14;;;;;;;6.60;4.80;;;17.90;99.90;;;;;;6231811;23;20400;-85
2022/11/01 13:55:33;;;;;;;6.50;5.60;;;18.10;99.90;;;;;;6236772;22;20448;-84
2022/11/01 13:58:01;;;;;;;6.17;5.57;;;18.20;99.90;;;;;;6230785;22;20453;-83
2022/11/01 14:00:41;;;;;;;9.03;6.10;;;18.00;99.90;;;;;;6228306;23;20435;-85
2022/11/01 14:03:28;;;;;;;10.30;5.40;;;18.20;99.90;;;;;;6229086;23;20353;-85
2022/11/01 14:06:08;;;;;;;7.57;6.00;;;18.30;99.90;;;;;;6235620;23;20369;-84
2022/11/01 14:08:47;;;;;;;6.70;5.07;;;18.50;99.90;;;;;;6231060;23;20441;-85